sensor_id;sensor_type;location;lat;lon;timestamp;P1;durP1;ratioP1;P2;durP2;ratioP2
84021;SDS011;74108;48.636;9.492;2023-12-22T00:01:50;2.50;;;1.23;;
84021;SDS011;74108;48.636;9.492;2023-12-22T00:04:16;3.25;;;1.10;;
84021;SDS011;74108;48.636;9.492;2023-12-22T00:06:41;3.28;;;0.90;;
84021;SDS011;74108;48.636;9.492;2023-12-22T00:09:06;4.65;;;1.27;;
84021;SDS011;74108;48.636;9.492;2023-12-22T00:11:32;3.03;;;1.00;;
84021;SDS011;74108;48.636;9.492;2023-12-22T00:13:57;3.38;;;1.10;;
84021;SDS011;74108;48.636;9.492;2023-12-22T00:16:23;2.53;;;1.30;;
84021;SDS011;74108;48.636;9.492;2023-12-22T00:18:48;2.28;;;1.23;;
84021;SDS011;74108;48.636;9.492;2023-12-22T00:21:13;2.45;;;1.13;;
84021;SDS011;74108;48.636;9.492;2023-12-22T00:23:39;5.78;;;1.15;;
84021;SDS011;74108;48.636;9.492;2023-12-22T00:26:07;2.72;;;1.05;;
84021;SDS011;74108;48.636;9.492;2023-12-22T00:28:33;2.30;;;1.10;;
84021;SDS011;74108;48.636;9.492;2023-12-22T00:30:58;3.42;;;1.30;;
84021;SDS011;74108;48.636;9.492;2023-12-22T00:33:23;3.15;;;1.50;;
84021;SDS011;74108;48.636;9.492;2023-12-22T00:35:49;2.72;;;1.15;;
84021;SDS011;74108;48.636;9.492;2023-12-22T00:38:14;4.32;;;1.30;;
84021;SDS011;74108;48.636;9.492;2023-12-22T00:40:40;2.00;;;0.90;;
84021;SDS011;74108;48.636;9.492;2023-12-22T00:43:05;2.63;;;1.30;;
84021;SDS011;74108;48.636;9.492;2023-12-22T00:45:30;6.43;;;1.17;;
84021;SDS011;74108;48.636;9.492;2023-12-22T00:47:56;2.97;;;1.17;;
84021;SDS011;74108;48.636;9.492;2023-12-22T00:50:21;4.50;;;1.30;;
84021;SDS011;74108;48.636;9.492;2023-12-22T00:52:46;3.30;;;1.50;;
84021;SDS011;74108;48.636;9.492;2023-12-22T00:55:12;2.05;;;1.20;;
84021;SDS011;74108;48.636;9.492;2023-12-22T00:57:37;4.72;;;1.30;;
84021;SDS011;74108;48.636;9.492;2023-12-22T01:00:03;3.00;;;1.02;;
84021;SDS011;74108;48.636;9.492;2023-12-22T01:02:29;3.72;;;1.73;;
84021;SDS011;74108;48.636;9.492;2023-12-22T01:04:55;2.17;;;1.02;;
84021;SDS011;74108;48.636;9.492;2023-12-22T01:07:20;4.35;;;1.40;;
84021;SDS011;74108;48.636;9.492;2023-12-22T01:09:46;2.22;;;1.15;;
84021;SDS011;74108;48.636;9.492;2023-12-22T01:12:11;4.65;;;1.40;;
84021;SDS011;74108;48.636;9.492;2023-12-22T01:14:36;4.30;;;1.48;;
84021;SDS011;74108;48.636;9.492;2023-12-22T01:17:02;2.90;;;1.20;;
84021;SDS011;74108;48.636;9.492;2023-12-22T01:19:27;3.65;;;1.23;;
84021;SDS011;74108;48.636;9.492;2023-12-22T01:21:53;5.20;;;1.42;;
84021;SDS011;74108;48.636;9.492;2023-12-22T01:24:18;4.40;;;1.20;;
84021;SDS011;74108;48.636;9.492;2023-12-22T01:26:44;3.70;;;1.30;;
84021;SDS011;74108;48.636;9.492;2023-12-22T01:29:09;3.22;;;1.33;;
84021;SDS011;74108;48.636;9.492;2023-12-22T01:31:34;2.97;;;1.30;;
84021;SDS011;74108;48.636;9.492;2023-12-22T01:34:00;4.50;;;1.40;;
84021;SDS011;74108;48.636;9.492;2023-12-22T01:36:25;5.15;;;1.40;;
84021;SDS011;74108;48.636;9.492;2023-12-22T01:38:50;4.05;;;1.60;;
84021;SDS011;74108;48.636;9.492;2023-12-22T01:41:16;4.18;;;1.40;;
84021;SDS011;74108;48.636;9.492;2023-12-22T01:43:41;3.33;;;1.50;;
84021;SDS011;74108;48.636;9.492;2023-12-22T01:46:07;3.58;;;1.33;;
84021;SDS011;74108;48.636;9.492;2023-12-22T01:48:33;3.90;;;1.35;;
84021;SDS011;74108;48.636;9.492;2023-12-22T01:51:00;6.53;;;1.42;;
84021;SDS011;74108;48.636;9.492;2023-12-22T01:53:27;4.00;;;1.55;;
84021;SDS011;74108;48.636;9.492;2023-12-22T01:55:54;3.53;;;1.40;;
84021;SDS011;74108;48.636;9.492;2023-12-22T01:58:22;5.10;;;1.48;;
84021;SDS011;74108;48.636;9.492;2023-12-22T02:00:48;3.03;;;1.10;;
84021;SDS011;74108;48.636;9.492;2023-12-22T02:03:14;3.55;;;1.25;;
84021;SDS011;74108;48.636;9.492;2023-12-22T02:05:41;3.53;;;1.10;;
84021;SDS011;74108;48.636;9.492;2023-12-22T02:08:08;4.97;;;1.13;;
84021;SDS011;74108;48.636;9.492;2023-12-22T02:10:34;3.72;;;1.13;;
84021;SDS011;74108;48.636;9.492;2023-12-22T02:13:00;5.07;;;1.10;;
84021;SDS011;74108;48.636;9.492;2023-12-22T02:15:25;4.78;;;0.88;;
84021;SDS011;74108;48.636;9.492;2023-12-22T02:17:59;4.97;;;0.85;;
84021;SDS011;74108;48.636;9.492;2023-12-22T02:20:32;1.83;;;0.95;;
84021;SDS011;74108;48.636;9.492;2023-12-22T02:22:57;2.20;;;0.77;;
84021;SDS011;74108;48.636;9.492;2023-12-22T02:25:22;1.58;;;0.80;;
84021;SDS011;74108;48.636;9.492;2023-12-22T02:27:50;1.92;;;0.93;;
84021;SDS011;74108;48.636;9.492;2023-12-22T02:33:06;2.15;;;0.68;;
84021;SDS011;74108;48.636;9.492;2023-12-22T02:35:36;1.40;;;0.70;;
84021;SDS011;74108;48.636;9.492;2023-12-22T02:38:03;2.63;;;1.00;;
84021;SDS011;74108;48.636;9.492;2023-12-22T02:40:30;3.40;;;0.65;;
84021;SDS011;74108;48.636;9.492;2023-12-22T02:42:57;1.27;;;0.38;;
84021;SDS011;74108;48.636;9.492;2023-12-22T02:45:22;1.52;;;0.73;;
84021;SDS011;74108;48.636;9.492;2023-12-22T02:47:48;3.08;;;0.80;;
84021;SDS011;74108;48.636;9.492;2023-12-22T02:50:13;4.47;;;0.80;;
84021;SDS011;74108;48.636;9.492;2023-12-22T02:52:41;1.10;;;0.55;;
84021;SDS011;74108;48.636;9.492;2023-12-22T02:55:06;1.33;;;0.60;;
84021;SDS011;74108;48.636;9.492;2023-12-22T02:57:32;2.63;;;0.60;;
84021;SDS011;74108;48.636;9.492;2023-12-22T02:59:57;3.65;;;0.90;;
84021;SDS011;74108;48.636;9.492;2023-12-22T03:02:23;2.55;;;1.10;;
84021;SDS011;74108;48.636;9.492;2023-12-22T03:04:49;2.47;;;1.08;;
84021;SDS011;74108;48.636;9.492;2023-12-22T03:07:14;3.55;;;1.50;;
84021;SDS011;74108;48.636;9.492;2023-12-22T03:09:40;1.75;;;0.98;;
84021;SDS011;74108;48.636;9.492;2023-12-22T03:12:07;2.05;;;1.00;;
84021;SDS011;74108;48.636;9.492;2023-12-22T03:14:32;2.90;;;0.90;;
84021;SDS011;74108;48.636;9.492;2023-12-22T03:16:58;2.50;;;1.20;;
84021;SDS011;74108;48.636;9.492;2023-12-22T03:19:24;3.70;;;1.10;;
84021;SDS011;74108;48.636;9.492;2023-12-22T03:21:50;3.17;;;1.00;;
84021;SDS011;74108;48.636;9.492;2023-12-22T03:24:16;1.30;;;0.88;;
84021;SDS011;74108;48.636;9.492;2023-12-22T03:26:43;3.40;;;1.05;;
84021;SDS011;74108;48.636;9.492;2023-12-22T03:29:09;2.75;;;1.17;;
84021;SDS011;74108;48.636;9.492;2023-12-22T03:31:34;3.60;;;1.10;;
84021;SDS011;74108;48.636;9.492;2023-12-22T03:33:59;3.83;;;1.10;;
84021;SDS011;74108;48.636;9.492;2023-12-22T03:36:25;2.22;;;0.98;;
84021;SDS011;74108;48.636;9.492;2023-12-22T03:38:50;3.88;;;1.08;;
84021;SDS011;74108;48.636;9.492;2023-12-22T03:41:15;2.50;;;0.80;;
84021;SDS011;74108;48.636;9.492;2023-12-22T03:43:41;2.85;;;0.75;;
84021;SDS011;74108;48.636;9.492;2023-12-22T03:46:06;2.03;;;1.00;;
84021;SDS011;74108;48.636;9.492;2023-12-22T03:48:32;1.67;;;0.80;;
84021;SDS011;74108;48.636;9.492;2023-12-22T03:50:58;2.28;;;0.55;;
84021;SDS011;74108;48.636;9.492;2023-12-22T03:53:23;3.13;;;1.00;;
84021;SDS011;74108;48.636;9.492;2023-12-22T03:55:48;3.33;;;0.95;;
84021;SDS011;74108;48.636;9.492;2023-12-22T03:58:14;2.17;;;1.00;;
84021;SDS011;74108;48.636;9.492;2023-12-22T04:00:39;1.77;;;0.80;;
84021;SDS011;74108;48.636;9.492;2023-12-22T04:03:04;1.35;;;0.85;;
84021;SDS011;74108;48.636;9.492;2023-12-22T04:05:30;3.03;;;0.80;;
84021;SDS011;74108;48.636;9.492;2023-12-22T04:07:55;4.03;;;0.77;;
84021;SDS011;74108;48.636;9.492;2023-12-22T04:10:21;1.98;;;0.80;;
84021;SDS011;74108;48.636;9.492;2023-12-22T04:12:46;4.35;;;1.05;;
84021;SDS011;74108;48.636;9.492;2023-12-22T04:15:11;3.08;;;1.10;;
84021;SDS011;74108;48.636;9.492;2023-12-22T04:17:38;4.75;;;1.15;;
84021;SDS011;74108;48.636;9.492;2023-12-22T04:20:03;4.45;;;1.05;;
84021;SDS011;74108;48.636;9.492;2023-12-22T04:22:30;1.85;;;0.93;;
84021;SDS011;74108;48.636;9.492;2023-12-22T04:24:55;4.65;;;1.23;;
84021;SDS011;74108;48.636;9.492;2023-12-22T04:27:20;2.20;;;1.05;;
84021;SDS011;74108;48.636;9.492;2023-12-22T04:29:46;2.45;;;0.95;;
84021;SDS011;74108;48.636;9.492;2023-12-22T04:32:11;6.55;;;2.50;;
84021;SDS011;74108;48.636;9.492;2023-12-22T04:34:36;3.65;;;1.20;;
84021;SDS011;74108;48.636;9.492;2023-12-22T04:37:02;2.83;;;1.50;;
84021;SDS011;74108;48.636;9.492;2023-12-22T04:39:27;2.83;;;1.27;;
84021;SDS011;74108;48.636;9.492;2023-12-22T04:41:53;3.42;;;1.23;;
84021;SDS011;74108;48.636;9.492;2023-12-22T04:44:18;8.00;;;1.30;;
84021;SDS011;74108;48.636;9.492;2023-12-22T04:46:43;3.80;;;1.20;;
84021;SDS011;74108;48.636;9.492;2023-12-22T04:49:09;4.03;;;1.02;;
84021;SDS011;74108;48.636;9.492;2023-12-22T04:51:34;3.90;;;1.30;;
84021;SDS011;74108;48.636;9.492;2023-12-22T04:53:59;5.47;;;1.27;;
84021;SDS011;74108;48.636;9.492;2023-12-22T04:56:25;9.07;;;1.40;;
84021;SDS011;74108;48.636;9.492;2023-12-22T04:58:51;2.83;;;1.15;;
84021;SDS011;74108;48.636;9.492;2023-12-22T05:01:16;1.98;;;0.95;;
84021;SDS011;74108;48.636;9.492;2023-12-22T05:03:42;4.18;;;0.85;;
84021;SDS011;74108;48.636;9.492;2023-12-22T05:06:08;3.78;;;1.25;;
84021;SDS011;74108;48.636;9.492;2023-12-22T05:08:33;7.47;;;1.38;;
84021;SDS011;74108;48.636;9.492;2023-12-22T05:10:59;1.02;;;0.80;;
84021;SDS011;74108;48.636;9.492;2023-12-22T05:13:25;2.25;;;1.10;;
84021;SDS011;74108;48.636;9.492;2023-12-22T05:15:50;3.17;;;1.10;;
84021;SDS011;74108;48.636;9.492;2023-12-22T05:18:16;2.60;;;1.10;;
84021;SDS011;74108;48.636;9.492;2023-12-22T05:20:42;3.25;;;1.20;;
84021;SDS011;74108;48.636;9.492;2023-12-22T05:23:08;3.55;;;1.20;;
84021;SDS011;74108;48.636;9.492;2023-12-22T05:25:34;2.10;;;0.80;;
84021;SDS011;74108;48.636;9.492;2023-12-22T05:27:59;3.60;;;1.00;;
84021;SDS011;74108;48.636;9.492;2023-12-22T05:30:25;3.38;;;1.10;;
84021;SDS011;74108;48.636;9.492;2023-12-22T05:32:50;3.85;;;1.50;;
84021;SDS011;74108;48.636;9.492;2023-12-22T05:35:15;4.82;;;1.20;;
84021;SDS011;74108;48.636;9.492;2023-12-22T05:37:41;4.63;;;1.23;;
84021;SDS011;74108;48.636;9.492;2023-12-22T05:40:06;2.70;;;1.10;;
84021;SDS011;74108;48.636;9.492;2023-12-22T05:42:32;2.95;;;1.20;;
84021;SDS011;74108;48.636;9.492;2023-12-22T05:44:57;4.65;;;1.40;;
84021;SDS011;74108;48.636;9.492;2023-12-22T05:47:23;6.32;;;1.20;;
84021;SDS011;74108;48.636;9.492;2023-12-22T05:49:48;4.20;;;1.25;;
84021;SDS011;74108;48.636;9.492;2023-12-22T05:52:14;4.38;;;1.30;;
84021;SDS011;74108;48.636;9.492;2023-12-22T05:54:39;4.43;;;1.50;;
84021;SDS011;74108;48.636;9.492;2023-12-22T05:57:05;5.57;;;1.30;;
84021;SDS011;74108;48.636;9.492;2023-12-22T05:59:31;2.20;;;1.30;;
84021;SDS011;74108;48.636;9.492;2023-12-22T06:01:58;2.40;;;1.13;;
84021;SDS011;74108;48.636;9.492;2023-12-22T06:04:24;3.70;;;1.33;;
84021;SDS011;74108;48.636;9.492;2023-12-22T06:06:50;4.80;;;1.50;;
84021;SDS011;74108;48.636;9.492;2023-12-22T06:09:15;6.38;;;1.60;;
84021;SDS011;74108;48.636;9.492;2023-12-22T06:11:42;5.07;;;1.20;;
84021;SDS011;74108;48.636;9.492;2023-12-22T06:14:07;10.23;;;1.60;;
84021;SDS011;74108;48.636;9.492;2023-12-22T06:16:33;4.22;;;1.10;;
84021;SDS011;74108;48.636;9.492;2023-12-22T06:18:58;4.32;;;1.20;;
84021;SDS011;74108;48.636;9.492;2023-12-22T06:21:23;4.85;;;1.65;;
84021;SDS011;74108;48.636;9.492;2023-12-22T06:23:49;4.55;;;1.90;;
84021;SDS011;74108;48.636;9.492;2023-12-22T06:26:15;9.40;;;2.38;;
84021;SDS011;74108;48.636;9.492;2023-12-22T06:28:40;7.68;;;1.88;;
84021;SDS011;74108;48.636;9.492;2023-12-22T06:31:06;5.90;;;1.63;;
84021;SDS011;74108;48.636;9.492;2023-12-22T06:33:32;5.43;;;1.70;;
84021;SDS011;74108;48.636;9.492;2023-12-22T06:35:57;6.00;;;2.05;;
84021;SDS011;74108;48.636;9.492;2023-12-22T06:38:23;4.47;;;2.10;;
84021;SDS011;74108;48.636;9.492;2023-12-22T06:40:48;4.10;;;1.70;;
84021;SDS011;74108;48.636;9.492;2023-12-22T06:43:14;4.10;;;1.70;;
84021;SDS011;74108;48.636;9.492;2023-12-22T06:45:39;6.13;;;1.80;;
84021;SDS011;74108;48.636;9.492;2023-12-22T06:48:05;7.38;;;2.08;;
84021;SDS011;74108;48.636;9.492;2023-12-22T06:50:31;6.55;;;1.60;;
84021;SDS011;74108;48.636;9.492;2023-12-22T06:52:57;5.57;;;1.65;;
84021;SDS011;74108;48.636;9.492;2023-12-22T06:55:22;3.58;;;1.25;;
84021;SDS011;74108;48.636;9.492;2023-12-22T06:57:48;5.43;;;2.03;;
84021;SDS011;74108;48.636;9.492;2023-12-22T07:00:14;4.07;;;1.60;;
84021;SDS011;74108;48.636;9.492;2023-12-22T07:02:40;5.75;;;1.52;;
84021;SDS011;74108;48.636;9.492;2023-12-22T07:07:34;6.65;;;1.83;;
84021;SDS011;74108;48.636;9.492;2023-12-22T07:09:59;7.03;;;1.75;;
84021;SDS011;74108;48.636;9.492;2023-12-22T07:12:25;5.07;;;1.48;;
84021;SDS011;74108;48.636;9.492;2023-12-22T07:14:50;5.30;;;1.85;;
84021;SDS011;74108;48.636;9.492;2023-12-22T07:17:16;5.40;;;1.60;;
84021;SDS011;74108;48.636;9.492;2023-12-22T07:19:41;8.57;;;1.75;;
84021;SDS011;74108;48.636;9.492;2023-12-22T07:22:06;2.67;;;0.90;;
84021;SDS011;74108;48.636;9.492;2023-12-22T07:24:32;4.93;;;1.75;;
84021;SDS011;74108;48.636;9.492;2023-12-22T07:26:57;5.10;;;1.55;;
84021;SDS011;74108;48.636;9.492;2023-12-22T07:29:22;5.55;;;1.80;;
84021;SDS011;74108;48.636;9.492;2023-12-22T07:31:48;3.67;;;1.52;;
84021;SDS011;74108;48.636;9.492;2023-12-22T07:34:13;6.00;;;1.55;;
84021;SDS011;74108;48.636;9.492;2023-12-22T07:36:39;6.22;;;1.95;;
84021;SDS011;74108;48.636;9.492;2023-12-22T07:39:05;7.63;;;1.40;;
84021;SDS011;74108;48.636;9.492;2023-12-22T07:41:31;8.40;;;1.67;;
84021;SDS011;74108;48.636;9.492;2023-12-22T07:43:57;6.22;;;1.40;;
84021;SDS011;74108;48.636;9.492;2023-12-22T07:46:22;3.83;;;1.50;;
84021;SDS011;74108;48.636;9.492;2023-12-22T07:48:48;5.82;;;1.80;;
84021;SDS011;74108;48.636;9.492;2023-12-22T07:51:14;4.88;;;1.25;;
84021;SDS011;74108;48.636;9.492;2023-12-22T07:53:39;7.30;;;1.70;;
84021;SDS011;74108;48.636;9.492;2023-12-22T07:56:05;4.72;;;1.45;;
84021;SDS011;74108;48.636;9.492;2023-12-22T07:58:31;6.35;;;1.40;;
84021;SDS011;74108;48.636;9.492;2023-12-22T08:00:57;6.68;;;1.50;;
84021;SDS011;74108;48.636;9.492;2023-12-22T08:03:23;5.22;;;1.60;;
84021;SDS011;74108;48.636;9.492;2023-12-22T08:05:49;6.10;;;1.63;;
84021;SDS011;74108;48.636;9.492;2023-12-22T08:08:14;9.82;;;2.10;;
84021;SDS011;74108;48.636;9.492;2023-12-22T08:10:40;7.65;;;1.90;;
84021;SDS011;74108;48.636;9.492;2023-12-22T08:13:06;4.25;;;1.42;;
84021;SDS011;74108;48.636;9.492;2023-12-22T08:15:31;7.82;;;1.83;;
84021;SDS011;74108;48.636;9.492;2023-12-22T08:17:57;5.10;;;1.60;;
84021;SDS011;74108;48.636;9.492;2023-12-22T08:20:22;9.38;;;1.95;;
84021;SDS011;74108;48.636;9.492;2023-12-22T08:22:48;5.85;;;1.95;;
84021;SDS011;74108;48.636;9.492;2023-12-22T08:25:15;7.70;;;1.70;;
84021;SDS011;74108;48.636;9.492;2023-12-22T08:27:41;4.47;;;1.75;;
84021;SDS011;74108;48.636;9.492;2023-12-22T08:30:07;7.65;;;1.88;;
84021;SDS011;74108;48.636;9.492;2023-12-22T08:32:33;9.30;;;2.30;;
84021;SDS011;74108;48.636;9.492;2023-12-22T08:34:59;9.55;;;1.90;;
84021;SDS011;74108;48.636;9.492;2023-12-22T08:37:24;7.88;;;1.85;;
84021;SDS011;74108;48.636;9.492;2023-12-22T08:39:50;7.57;;;1.90;;
84021;SDS011;74108;48.636;9.492;2023-12-22T08:42:16;10.38;;;1.80;;
84021;SDS011;74108;48.636;9.492;2023-12-22T08:44:41;8.35;;;2.70;;
84021;SDS011;74108;48.636;9.492;2023-12-22T08:47:07;6.07;;;1.70;;
84021;SDS011;74108;48.636;9.492;2023-12-22T08:49:32;7.15;;;1.80;;
84021;SDS011;74108;48.636;9.492;2023-12-22T08:51:58;6.32;;;2.30;;
84021;SDS011;74108;48.636;9.492;2023-12-22T08:54:23;7.05;;;1.70;;
84021;SDS011;74108;48.636;9.492;2023-12-22T08:56:48;10.50;;;2.13;;
84021;SDS011;74108;48.636;9.492;2023-12-22T08:59:14;6.88;;;1.48;;
84021;SDS011;74108;48.636;9.492;2023-12-22T09:01:39;9.90;;;2.10;;
84021;SDS011;74108;48.636;9.492;2023-12-22T09:04:06;10.90;;;2.63;;
84021;SDS011;74108;48.636;9.492;2023-12-22T09:06:31;5.00;;;2.15;;
84021;SDS011;74108;48.636;9.492;2023-12-22T09:08:57;8.57;;;2.03;;
84021;SDS011;74108;48.636;9.492;2023-12-22T09:11:23;9.23;;;2.17;;
84021;SDS011;74108;48.636;9.492;2023-12-22T09:13:50;7.18;;;1.73;;
84021;SDS011;74108;48.636;9.492;2023-12-22T09:16:20;6.40;;;1.63;;
84021;SDS011;74108;48.636;9.492;2023-12-22T09:18:46;7.63;;;1.67;;
84021;SDS011;74108;48.636;9.492;2023-12-22T09:21:12;10.40;;;3.35;;
84021;SDS011;74108;48.636;9.492;2023-12-22T09:23:37;9.63;;;2.55;;
84021;SDS011;74108;48.636;9.492;2023-12-22T09:26:03;7.97;;;1.45;;
84021;SDS011;74108;48.636;9.492;2023-12-22T09:28:29;9.35;;;1.65;;
84021;SDS011;74108;48.636;9.492;2023-12-22T09:30:55;4.97;;;1.60;;
84021;SDS011;74108;48.636;9.492;2023-12-22T09:33:20;3.25;;;1.58;;
84021;SDS011;74108;48.636;9.492;2023-12-22T09:35:47;12.27;;;2.00;;
84021;SDS011;74108;48.636;9.492;2023-12-22T09:38:13;4.43;;;1.20;;
84021;SDS011;74108;48.636;9.492;2023-12-22T09:40:38;6.60;;;1.80;;
84021;SDS011;74108;48.636;9.492;2023-12-22T09:43:04;8.15;;;1.73;;
84021;SDS011;74108;48.636;9.492;2023-12-22T09:45:32;10.18;;;2.50;;
84021;SDS011;74108;48.636;9.492;2023-12-22T09:47:59;4.50;;;1.38;;
84021;SDS011;74108;48.636;9.492;2023-12-22T09:50:26;5.28;;;1.50;;
84021;SDS011;74108;48.636;9.492;2023-12-22T09:52:52;4.90;;;1.60;;
84021;SDS011;74108;48.636;9.492;2023-12-22T09:55:17;5.00;;;1.67;;
84021;SDS011;74108;48.636;9.492;2023-12-22T09:57:46;9.45;;;2.05;;
84021;SDS011;74108;48.636;9.492;2023-12-22T10:00:12;8.98;;;1.85;;
84021;SDS011;74108;48.636;9.492;2023-12-22T10:02:40;7.72;;;2.00;;
84021;SDS011;74108;48.636;9.492;2023-12-22T10:05:06;6.45;;;1.67;;
84021;SDS011;74108;48.636;9.492;2023-12-22T10:07:32;8.48;;;2.00;;
84021;SDS011;74108;48.636;9.492;2023-12-22T10:09:59;7.80;;;1.50;;
84021;SDS011;74108;48.636;9.492;2023-12-22T10:12:25;7.70;;;1.80;;
84021;SDS011;74108;48.636;9.492;2023-12-22T10:14:52;6.78;;;1.63;;
84021;SDS011;74108;48.636;9.492;2023-12-22T10:17:18;8.05;;;1.85;;
84021;SDS011;74108;48.636;9.492;2023-12-22T10:19:44;7.22;;;1.48;;
84021;SDS011;74108;48.636;9.492;2023-12-22T10:22:09;4.28;;;2.03;;
84021;SDS011;74108;48.636;9.492;2023-12-22T10:27:08;6.75;;;1.73;;
84021;SDS011;74108;48.636;9.492;2023-12-22T10:29:34;2.90;;;1.10;;
84021;SDS011;74108;48.636;9.492;2023-12-22T10:32:00;8.75;;;2.50;;
84021;SDS011;74108;48.636;9.492;2023-12-22T10:34:26;8.13;;;2.28;;
84021;SDS011;74108;48.636;9.492;2023-12-22T10:36:52;5.93;;;1.80;;
84021;SDS011;74108;48.636;9.492;2023-12-22T10:39:17;4.05;;;1.38;;
84021;SDS011;74108;48.636;9.492;2023-12-22T10:41:43;3.90;;;1.60;;
84021;SDS011;74108;48.636;9.492;2023-12-22T10:44:09;6.47;;;1.90;;
84021;SDS011;74108;48.636;9.492;2023-12-22T10:46:34;5.47;;;1.60;;
84021;SDS011;74108;48.636;9.492;2023-12-22T10:49:00;9.10;;;1.83;;
84021;SDS011;74108;48.636;9.492;2023-12-22T10:51:28;8.15;;;1.90;;
84021;SDS011;74108;48.636;9.492;2023-12-22T10:53:57;8.40;;;1.80;;
84021;SDS011;74108;48.636;9.492;2023-12-22T10:56:23;6.90;;;1.63;;
84021;SDS011;74108;48.636;9.492;2023-12-22T10:58:48;7.93;;;1.60;;
84021;SDS011;74108;48.636;9.492;2023-12-22T11:01:14;7.72;;;1.80;;
84021;SDS011;74108;48.636;9.492;2023-12-22T11:03:41;10.75;;;2.30;;
84021;SDS011;74108;48.636;9.492;2023-12-22T11:06:12;6.00;;;1.70;;
84021;SDS011;74108;48.636;9.492;2023-12-22T11:08:40;5.72;;;1.80;;
84021;SDS011;74108;48.636;9.492;2023-12-22T11:11:24;6.30;;;2.13;;
84021;SDS011;74108;48.636;9.492;2023-12-22T11:13:55;6.07;;;1.63;;
84021;SDS011;74108;48.636;9.492;2023-12-22T11:16:23;6.75;;;1.50;;
84021;SDS011;74108;48.636;9.492;2023-12-22T11:18:49;7.63;;;1.98;;
84021;SDS011;74108;48.636;9.492;2023-12-22T11:21:17;6.72;;;1.42;;
84021;SDS011;74108;48.636;9.492;2023-12-22T11:23:44;6.85;;;1.60;;
84021;SDS011;74108;48.636;9.492;2023-12-22T11:26:10;6.63;;;2.00;;
84021;SDS011;74108;48.636;9.492;2023-12-22T11:28:36;6.55;;;1.73;;
84021;SDS011;74108;48.636;9.492;2023-12-22T11:31:05;6.28;;;1.90;;
84021;SDS011;74108;48.636;9.492;2023-12-22T11:33:33;5.57;;;1.83;;
84021;SDS011;74108;48.636;9.492;2023-12-22T11:36:01;7.05;;;1.85;;
84021;SDS011;74108;48.636;9.492;2023-12-22T11:38:28;5.30;;;1.45;;
84021;SDS011;74108;48.636;9.492;2023-12-22T11:40:54;4.57;;;1.58;;
84021;SDS011;74108;48.636;9.492;2023-12-22T11:43:20;6.88;;;1.63;;
84021;SDS011;74108;48.636;9.492;2023-12-22T11:45:48;8.88;;;1.92;;
84021;SDS011;74108;48.636;9.492;2023-12-22T11:48:14;3.88;;;1.45;;
84021;SDS011;74108;48.636;9.492;2023-12-22T11:50:41;8.20;;;2.28;;
84021;SDS011;74108;48.636;9.492;2023-12-22T11:53:17;6.03;;;1.75;;
84021;SDS011;74108;48.636;9.492;2023-12-22T11:55:58;7.60;;;1.70;;
84021;SDS011;74108;48.636;9.492;2023-12-22T12:01:01;6.38;;;1.52;;
84021;SDS011;74108;48.636;9.492;2023-12-22T12:03:30;6.60;;;1.98;;
84021;SDS011;74108;48.636;9.492;2023-12-22T12:08:54;5.43;;;1.80;;
84021;SDS011;74108;48.636;9.492;2023-12-22T12:11:27;8.35;;;2.00;;
84021;SDS011;74108;48.636;9.492;2023-12-22T12:14:29;5.82;;;1.63;;
84021;SDS011;74108;48.636;9.492;2023-12-22T12:16:57;4.65;;;1.60;;
84021;SDS011;74108;48.636;9.492;2023-12-22T12:19:30;4.47;;;1.55;;
84021;SDS011;74108;48.636;9.492;2023-12-22T12:21:56;2.80;;;1.13;;
84021;SDS011;74108;48.636;9.492;2023-12-22T12:24:22;4.07;;;1.50;;
84021;SDS011;74108;48.636;9.492;2023-12-22T12:26:47;4.40;;;1.52;;
84021;SDS011;74108;48.636;9.492;2023-12-22T12:29:13;5.47;;;1.67;;
84021;SDS011;74108;48.636;9.492;2023-12-22T12:31:39;3.85;;;1.65;;
84021;SDS011;74108;48.636;9.492;2023-12-22T12:34:07;4.05;;;1.52;;
84021;SDS011;74108;48.636;9.492;2023-12-22T12:36:35;3.92;;;1.17;;
84021;SDS011;74108;48.636;9.492;2023-12-22T12:39:06;3.97;;;1.30;;
84021;SDS011;74108;48.636;9.492;2023-12-22T12:41:40;7.30;;;1.50;;
84021;SDS011;74108;48.636;9.492;2023-12-22T12:44:06;8.63;;;1.63;;
84021;SDS011;74108;48.636;9.492;2023-12-22T12:46:34;4.22;;;1.40;;
84021;SDS011;74108;48.636;9.492;2023-12-22T12:51:29;3.55;;;1.10;;
84021;SDS011;74108;48.636;9.492;2023-12-22T12:53:55;4.10;;;1.42;;
84021;SDS011;74108;48.636;9.492;2023-12-22T12:56:21;5.70;;;1.20;;
84021;SDS011;74108;48.636;9.492;2023-12-22T12:58:46;3.40;;;1.70;;
84021;SDS011;74108;48.636;9.492;2023-12-22T13:01:12;3.45;;;1.13;;
84021;SDS011;74108;48.636;9.492;2023-12-22T13:06:46;4.07;;;0.95;;
84021;SDS011;74108;48.636;9.492;2023-12-22T13:09:15;2.45;;;1.20;;
84021;SDS011;74108;48.636;9.492;2023-12-22T13:11:42;1.98;;;0.90;;
84021;SDS011;74108;48.636;9.492;2023-12-22T13:14:21;1.48;;;0.80;;
84021;SDS011;74108;48.636;9.492;2023-12-22T13:16:50;2.33;;;0.90;;
84021;SDS011;74108;48.636;9.492;2023-12-22T13:19:15;2.85;;;1.08;;
84021;SDS011;74108;48.636;9.492;2023-12-22T13:21:41;2.05;;;0.82;;
84021;SDS011;74108;48.636;9.492;2023-12-22T13:24:13;2.53;;;0.80;;
84021;SDS011;74108;48.636;9.492;2023-12-22T13:26:43;1.95;;;1.10;;
84021;SDS011;74108;48.636;9.492;2023-12-22T13:29:10;1.73;;;1.00;;
84021;SDS011;74108;48.636;9.492;2023-12-22T13:31:36;1.92;;;0.82;;
84021;SDS011;74108;48.636;9.492;2023-12-22T13:34:03;2.40;;;0.90;;
84021;SDS011;74108;48.636;9.492;2023-12-22T13:36:34;2.63;;;1.13;;
84021;SDS011;74108;48.636;9.492;2023-12-22T13:39:01;2.45;;;0.93;;
84021;SDS011;74108;48.636;9.492;2023-12-22T13:41:29;2.17;;;0.93;;
84021;SDS011;74108;48.636;9.492;2023-12-22T13:43:54;2.95;;;1.10;;
84021;SDS011;74108;48.636;9.492;2023-12-22T13:46:21;2.40;;;1.00;;
84021;SDS011;74108;48.636;9.492;2023-12-22T13:48:53;1.08;;;0.80;;
84021;SDS011;74108;48.636;9.492;2023-12-22T13:51:19;1.73;;;1.00;;
84021;SDS011;74108;48.636;9.492;2023-12-22T13:53:47;2.00;;;1.15;;
84021;SDS011;74108;48.636;9.492;2023-12-22T13:56:13;1.70;;;0.90;;
84021;SDS011;74108;48.636;9.492;2023-12-22T13:58:45;1.50;;;0.90;;
84021;SDS011;74108;48.636;9.492;2023-12-22T14:01:15;1.27;;;0.65;;
84021;SDS011;74108;48.636;9.492;2023-12-22T14:03:44;1.13;;;0.73;;
84021;SDS011;74108;48.636;9.492;2023-12-22T14:06:10;1.58;;;0.90;;
84021;SDS011;74108;48.636;9.492;2023-12-22T14:08:38;1.77;;;0.90;;
84021;SDS011;74108;48.636;9.492;2023-12-22T14:11:04;1.00;;;0.90;;
84021;SDS011;74108;48.636;9.492;2023-12-22T14:13:30;1.10;;;0.80;;
84021;SDS011;74108;48.636;9.492;2023-12-22T14:15:56;2.30;;;0.77;;
84021;SDS011;74108;48.636;9.492;2023-12-22T14:18:22;1.02;;;0.75;;
84021;SDS011;74108;48.636;9.492;2023-12-22T14:20:47;1.65;;;0.75;;
84021;SDS011;74108;48.636;9.492;2023-12-22T14:23:12;0.82;;;0.80;;
84021;SDS011;74108;48.636;9.492;2023-12-22T14:25:41;1.73;;;0.93;;
84021;SDS011;74108;48.636;9.492;2023-12-22T14:28:07;1.20;;;0.70;;
84021;SDS011;74108;48.636;9.492;2023-12-22T14:30:33;1.08;;;0.73;;
84021;SDS011;74108;48.636;9.492;2023-12-22T14:32:59;1.02;;;0.77;;
84021;SDS011;74108;48.636;9.492;2023-12-22T14:35:24;1.10;;;0.68;;
84021;SDS011;74108;48.636;9.492;2023-12-22T14:37:50;2.33;;;0.63;;
84021;SDS011;74108;48.636;9.492;2023-12-22T14:40:15;1.08;;;0.68;;
84021;SDS011;74108;48.636;9.492;2023-12-22T14:42:41;1.48;;;0.75;;
84021;SDS011;74108;48.636;9.492;2023-12-22T14:45:06;0.52;;;0.43;;
84021;SDS011;74108;48.636;9.492;2023-12-22T14:47:32;0.47;;;0.47;;
84021;SDS011;74108;48.636;9.492;2023-12-22T14:49:57;1.45;;;0.70;;
84021;SDS011;74108;48.636;9.492;2023-12-22T14:52:29;3.28;;;0.75;;
84021;SDS011;74108;48.636;9.492;2023-12-22T14:54:58;0.75;;;0.47;;
84021;SDS011;74108;48.636;9.492;2023-12-22T14:57:24;0.60;;;0.50;;
84021;SDS011;74108;48.636;9.492;2023-12-22T14:59:49;2.75;;;0.40;;
84021;SDS011;74108;48.636;9.492;2023-12-22T15:02:14;1.23;;;0.60;;